Time;durP1;ratioP1;P1;durP2;ratioP2;P2;SDS_P1;SDS_P2;PMS_P1;PMS_P2;Temp;Humidity;BMP_temperature;BMP_pressure;BME280_temperature;BME280_humidity;BME280_pressure;Samples;Min_cycle;Max_cycle;Signal;HPM_P1;HPM_P2
2022/05/01 00:01:51;;;;;;;6.60;5.40;;;;;;;;;;5007294;28;20182;-53
2022/05/01 00:04:17;;;;;;;6.43;5.93;;;;;;;;;;5006550;28;20206;-53
2022/05/01 00:06:43;;;;;;;8.73;6.07;;;;;;;;;;5005431;28;20276;-53
2022/05/01 00:09:09;;;;;;;6.97;6.23;;;;;;;;;;5008079;28;20179;-53
2022/05/01 00:11:35;;;;;;;6.43;5.93;;;;;;;;;;5006106;28;20183;-54
2022/05/01 00:14:01;;;;;;;12.07;6.50;;;;;;;;;;5001561;28;20716;-53
2022/05/01 00:16:27;;;;;;;6.40;5.80;;;;;;;;;;5006781;28;20190;-53
2022/05/01 00:18:53;;;;;;;6.30;5.70;;;;;;;;;;5004746;28;20249;-53
2022/05/01 00:21:20;;;;;;;7.30;6.60;;;;;;;;;;5008473;28;20201;-53
2022/05/01 00:23:46;;;;;;;7.43;6.63;;;;;;;;;;5005688;28;20332;-52
2022/05/01 00:26:13;;;;;;;6.70;6.10;;;;;;;;;;5008302;28;20214;-53
2022/05/01 00:28:39;;;;;;;7.17;6.00;;;;;;;;;;5002433;28;20197;-54
2022/05/01 00:31:06;;;;;;;6.53;5.93;;;;;;;;;;5000191;28;20182;-53
2022/05/01 00:36:29;;;;;;;5.77;5.37;;;;;;;;;;5008286;28;20935;-53
2022/05/01 00:38:56;;;;;;;6.10;5.60;;;;;;;;;;5005603;28;20200;-53
2022/05/01 00:41:23;;;;;;;9.50;5.87;;;;;;;;;;5007893;28;20248;-53
2022/05/01 00:44:03;;;;;;;6.17;5.63;;;;;;;;;;5005559;28;20193;-54
2022/05/01 00:46:30;;;;;;;6.90;6.30;;;;;;;;;;5001626;28;20605;-53
2022/05/01 00:48:57;;;;;;;6.80;6.20;;;;;;;;;;5005721;28;20696;-53
2022/05/01 00:51:24;;;;;;;8.40;5.80;;;;;;;;;;5007013;28;20202;-53
2022/05/01 00:53:51;;;;;;;6.03;5.53;;;;;;;;;;5005878;28;20174;-53
2022/05/01 00:56:18;;;;;;;6.50;6.00;;;;;;;;;;5006592;28;20197;-54
2022/05/01 00:58:44;;;;;;;6.07;5.57;;;;;;;;;;5007500;28;20629;-52
2022/05/01 01:01:11;;;;;;;6.50;6.00;;;;;;;;;;5007518;28;20233;-53
2022/05/01 01:03:37;;;;;;;6.40;5.63;;;;;;;;;;5006099;28;20221;-53
2022/05/01 01:06:03;;;;;;;7.50;6.10;;;;;;;;;;5006649;28;20233;-53
2022/05/01 01:08:30;;;;;;;7.43;5.47;;;;;;;;;;5005895;28;20834;-53
2022/05/01 01:10:56;;;;;;;6.60;6.10;;;;;;;;;;5004967;28;20225;-53
2022/05/01 01:13:29;;;;;;;7.07;6.37;;;;;;;;;;5004238;28;20190;-53
2022/05/01 01:15:55;;;;;;;6.93;6.10;;;;;;;;;;5005634;28;20186;-53
2022/05/01 01:18:25;;;;;;;6.73;5.20;;;;;;;;;;5005591;28;20190;-53
2022/05/01 01:20:54;;;;;;;6.60;5.93;;;;;;;;;;5008318;28;20193;-53
2022/05/01 01:23:21;;;;;;;6.27;5.77;;;;;;;;;;5005065;28;20206;-54
2022/05/01 01:25:48;;;;;;;8.97;5.10;;;;;;;;;;5007486;28;20213;-53
2022/05/01 01:28:15;;;;;;;6.60;5.50;;;;;;;;;;5006091;28;20190;-53
2022/05/01 01:33:32;;;;;;;6.37;5.87;;;;;;;;;;5001900;28;20379;-53
2022/05/01 01:36:01;;;;;;;6.37;5.77;;;;;;;;;;5008026;28;20853;-53
2022/05/01 01:38:27;;;;;;;6.60;5.90;;;;;;;;;;5001863;28;20705;-53
2022/05/01 01:40:58;;;;;;;7.20;6.50;;;;;;;;;;5005790;28;20693;-53
2022/05/01 01:43:25;;;;;;;7.03;6.53;;;;;;;;;;5006118;28;20278;-53
2022/05/01 01:45:51;;;;;;;6.80;6.20;;;;;;;;;;5006790;28;20290;-53
2022/05/01 01:48:18;;;;;;;7.53;6.63;;;;;;;;;;5005897;28;20210;-53
2022/05/01 01:50:54;;;;;;;6.60;6.00;;;;;;;;;;5006313;28;20175;-53
2022/05/01 01:53:23;;;;;;;6.83;6.17;;;;;;;;;;5000831;28;20182;-53
2022/05/01 01:55:50;;;;;;;7.07;6.37;;;;;;;;;;5006188;28;20182;-53
2022/05/01 01:58:16;;;;;;;6.90;6.20;;;;;;;;;;4979621;28;20309;-53
2022/05/01 02:00:42;;;;;;;7.40;6.73;;;;;;;;;;5005765;28;20272;-53
2022/05/01 02:03:08;;;;;;;10.17;9.33;;;;;;;;;;4991181;28;20245;-53
2022/05/01 02:05:35;;;;;;;7.27;6.53;;;;;;;;;;5020211;28;20768;-53
2022/05/01 02:08:01;;;;;;;7.23;6.63;;;;;;;;;;4997002;28;20211;-53
2022/05/01 02:10:31;;;;;;;6.97;6.23;;;;;;;;;;5006107;28;20566;-54
2022/05/01 02:13:01;;;;;;;5.90;5.40;;;;;;;;;;4996349;28;20183;-53
2022/05/01 02:15:31;;;;;;;6.93;6.30;;;;;;;;;;5004294;28;20227;-53
2022/05/01 02:18:00;;;;;;;7.27;6.67;;;;;;;;;;5000238;28;20268;-54
2022/05/01 02:20:27;;;;;;;6.97;6.27;;;;;;;;;;4997776;28;20182;-54
2022/05/01 02:22:53;;;;;;;6.53;5.93;;;;;;;;;;5003985;28;20213;-54
2022/05/01 02:25:23;;;;;;;8.07;7.37;;;;;;;;;;5004691;28;20706;-54
2022/05/01 02:27:49;;;;;;;6.00;5.50;;;;;;;;;;5006420;28;20187;-53
2022/05/01 02:30:16;;;;;;;6.83;6.23;;;;;;;;;;5007396;28;20712;-53
2022/05/01 02:32:45;;;;;;;6.47;5.87;;;;;;;;;;4987755;28;20222;-54
2022/05/01 02:35:11;;;;;;;7.37;6.67;;;;;;;;;;5012613;28;20602;-53
2022/05/01 02:37:38;;;;;;;6.80;6.10;;;;;;;;;;5001481;28;20305;-53
2022/05/01 02:40:05;;;;;;;7.00;6.40;;;;;;;;;;5005764;28;20194;-53
2022/05/01 02:42:31;;;;;;;7.53;6.83;;;;;;;;;;4999758;28;20187;-53
2022/05/01 02:44:59;;;;;;;7.23;6.63;;;;;;;;;;4994404;28;20230;-53
2022/05/01 02:47:25;;;;;;;7.33;6.73;;;;;;;;;;5002015;28;20675;-53
2022/05/01 02:49:52;;;;;;;7.57;6.43;;;;;;;;;;5002538;28;20816;-53
2022/05/01 02:52:18;;;;;;;6.60;6.03;;;;;;;;;;5006454;28;20527;-53
2022/05/01 02:54:44;;;;;;;9.17;6.37;;;;;;;;;;5006619;28;20192;-53
2022/05/01 02:57:10;;;;;;;7.87;7.17;;;;;;;;;;5004458;28;21424;-54
2022/05/01 02:59:36;;;;;;;7.07;6.47;;;;;;;;;;5005720;28;20704;-54
2022/05/01 03:02:02;;;;;;;7.13;6.47;;;;;;;;;;5002930;28;20174;-53
2022/05/01 03:04:29;;;;;;;6.70;6.20;;;;;;;;;;5002000;28;20314;-54
2022/05/01 03:06:56;;;;;;;7.00;6.40;;;;;;;;;;5001266;28;20235;-53
2022/05/01 03:09:22;;;;;;;6.87;6.27;;;;;;;;;;5003866;28;20178;-54
2022/05/01 03:11:48;;;;;;;8.30;6.23;;;;;;;;;;5003799;28;20182;-53
2022/05/01 03:14:15;;;;;;;6.97;6.33;;;;;;;;;;5002786;28;20252;-54
2022/05/01 03:16:41;;;;;;;29.57;28.10;;;;;;;;;;5002989;28;20712;-54
2022/05/01 03:24:36;;;;;;;8.60;7.23;;;;;;;;;;5004381;28;20279;-53
2022/05/01 03:27:06;;;;;;;7.33;6.63;;;;;;;;;;5004288;28;20744;-53
2022/05/01 03:29:33;;;;;;;7.53;6.83;;;;;;;;;;5006667;28;20190;-53
2022/05/01 03:31:59;;;;;;;8.50;7.83;;;;;;;;;;5008189;28;20707;-54
2022/05/01 03:34:26;;;;;;;7.13;6.53;;;;;;;;;;5006387;28;20741;-53
2022/05/01 03:36:55;;;;;;;8.17;7.47;;;;;;;;;;5006164;28;20191;-54
2022/05/01 03:39:21;;;;;;;7.20;6.50;;;;;;;;;;4998334;28;20191;-53
2022/05/01 03:41:47;;;;;;;7.00;6.40;;;;;;;;;;5008857;28;20687;-53
2022/05/01 03:44:13;;;;;;;7.07;6.37;;;;;;;;;;5007272;28;20633;-53
2022/05/01 03:46:39;;;;;;;7.70;7.00;;;;;;;;;;5008480;28;20187;-54
2022/05/01 03:49:06;;;;;;;8.03;7.33;;;;;;;;;;5007568;28;20923;-54
2022/05/01 03:51:33;;;;;;;7.80;7.00;;;;;;;;;;5008589;28;20269;-54
2022/05/01 03:54:02;;;;;;;7.60;6.97;;;;;;;;;;5005750;28;20187;-53
2022/05/01 03:56:28;;;;;;;7.47;6.87;;;;;;;;;;5006995;28;20178;-53
2022/05/01 03:58:54;;;;;;;7.27;6.67;;;;;;;;;;5006420;28;20183;-53
2022/05/01 04:01:20;;;;;;;10.73;10.03;;;;;;;;;;5007441;28;20241;-54
2022/05/01 04:03:46;;;;;;;7.43;6.83;;;;;;;;;;5019834;28;20182;-53
2022/05/01 04:06:13;;;;;;;7.53;6.90;;;;;;;;;;5006712;28;20210;-53
2022/05/01 04:08:41;;;;;;;9.07;8.17;;;;;;;;;;5005546;28;20221;-55
2022/05/01 04:11:07;;;;;;;7.23;6.67;;;;;;;;;;4992252;28;20644;-53
2022/05/01 04:13:35;;;;;;;7.63;6.93;;;;;;;;;;5006414;28;20309;-53
2022/05/01 04:16:05;;;;;;;7.70;7.00;;;;;;;;;;5009497;28;20191;-53
2022/05/01 04:18:34;;;;;;;6.97;6.37;;;;;;;;;;5005864;28;20194;-53
2022/05/01 04:21:00;;;;;;;8.67;7.30;;;;;;;;;;5009780;28;20617;-53
2022/05/01 04:23:26;;;;;;;8.27;7.47;;;;;;;;;;5003621;28;20186;-52
2022/05/01 04:25:53;;;;;;;7.50;6.80;;;;;;;;;;5009626;28;20205;-53
2022/05/01 04:28:20;;;;;;;7.47;6.77;;;;;;;;;;5007619;28;20182;-53
2022/05/01 04:30:50;;;;;;;7.90;7.20;;;;;;;;;;4998467;28;20202;-53
2022/05/01 04:33:17;;;;;;;11.03;10.23;;;;;;;;;;5006809;28;20234;-53
2022/05/01 04:35:48;;;;;;;7.70;6.97;;;;;;;;;;5007196;28;20278;-53
2022/05/01 04:38:15;;;;;;;7.57;6.90;;;;;;;;;;5006697;28;20179;-53
2022/05/01 04:40:42;;;;;;;8.17;7.37;;;;;;;;;;5006168;28;20229;-54
2022/05/01 04:43:12;;;;;;;7.03;6.43;;;;;;;;;;5002752;28;20183;-53
2022/05/01 04:45:40;;;;;;;7.23;6.60;;;;;;;;;;5009213;28;20212;-53
2022/05/01 04:48:09;;;;;;;8.20;7.40;;;;;;;;;;4999810;28;20190;-53
2022/05/01 04:50:36;;;;;;;8.17;7.47;;;;;;;;;;5007404;28;20516;-53
2022/05/01 04:53:03;;;;;;;7.63;7.03;;;;;;;;;;5001999;28;20668;-53
2022/05/01 04:55:30;;;;;;;7.23;6.53;;;;;;;;;;5005898;28;20186;-53
2022/05/01 04:57:57;;;;;;;7.60;6.90;;;;;;;;;;5005495;28;20186;-53
2022/05/01 05:00:23;;;;;;;9.80;8.90;;;;;;;;;;5007923;28;20187;-53
2022/05/01 05:02:50;;;;;;;7.83;7.03;;;;;;;;;;5004837;28;20182;-53
2022/05/01 05:05:17;;;;;;;7.67;6.97;;;;;;;;;;5007617;28;20203;-53
2022/05/01 05:07:43;;;;;;;8.03;7.23;;;;;;;;;;5006806;28;20179;-54
2022/05/01 05:10:10;;;;;;;7.83;7.13;;;;;;;;;;5004164;28;20214;-53
2022/05/01 05:12:37;;;;;;;8.20;7.30;;;;;;;;;;5005824;28;20249;-53
2022/05/01 05:15:08;;;;;;;8.10;7.37;;;;;;;;;;5005509;28;20590;-53
2022/05/01 05:17:34;;;;;;;8.03;7.30;;;;;;;;;;5004191;28;20241;-53
2022/05/01 05:20:01;;;;;;;7.73;7.03;;;;;;;;;;5002978;28;20280;-53
2022/05/01 05:22:27;;;;;;;7.27;6.63;;;;;;;;;;5002492;28;20249;-53
2022/05/01 05:24:53;;;;;;;8.27;7.57;;;;;;;;;;5005555;28;20202;-53
2022/05/01 05:27:21;;;;;;;7.43;6.73;;;;;;;;;;5002846;28;20187;-53
2022/05/01 05:29:50;;;;;;;8.50;7.50;;;;;;;;;;5004644;28;20281;-54
2022/05/01 05:32:16;;;;;;;7.63;7.03;;;;;;;;;;5004308;28;20215;-53
2022/05/01 05:34:42;;;;;;;8.30;7.60;;;;;;;;;;5001523;28;20264;-53
2022/05/01 05:37:08;;;;;;;8.90;8.00;;;;;;;;;;5003965;28;20240;-53
2022/05/01 05:39:34;;;;;;;8.50;7.70;;;;;;;;;;5001369;28;20191;-53
2022/05/01 05:42:00;;;;;;;7.80;7.20;;;;;;;;;;5004319;28;20179;-53
2022/05/01 05:44:26;;;;;;;9.17;7.30;;;;;;;;;;5005335;28;20187;-53
2022/05/01 05:46:52;;;;;;;8.23;7.40;;;;;;;;;;5016112;28;20866;-53
2022/05/01 05:49:18;;;;;;;7.97;7.27;;;;;;;;;;5002801;28;20210;-53
2022/05/01 05:51:44;;;;;;;8.50;7.53;;;;;;;;;;5005071;28;20174;-53
2022/05/01 05:54:10;;;;;;;7.37;6.73;;;;;;;;;;5005724;28;20191;-53
2022/05/01 05:56:36;;;;;;;7.70;7.00;;;;;;;;;;5004760;28;20200;-53
2022/05/01 05:59:03;;;;;;;8.17;7.37;;;;;;;;;;5003661;28;20244;-53
2022/05/01 06:01:29;;;;;;;8.33;7.57;;;;;;;;;;5004214;28;20187;-53
2022/05/01 06:03:55;;;;;;;8.00;7.30;;;;;;;;;;5001593;28;20219;-53
2022/05/01 06:06:21;;;;;;;7.33;6.70;;;;;;;;;;5005411;28;20716;-53
2022/05/01 06:08:48;;;;;;;8.20;7.33;;;;;;;;;;5003082;28;20629;-53
2022/05/01 06:11:14;;;;;;;7.50;6.90;;;;;;;;;;5002865;28;20277;-53
2022/05/01 06:13:40;;;;;;;8.00;7.30;;;;;;;;;;4984962;28;20798;-53
2022/05/01 06:16:06;;;;;;;9.07;6.63;;;;;;;;;;5004867;28;20190;-53
2022/05/01 06:18:33;;;;;;;7.60;6.90;;;;;;;;;;5004966;28;20195;-53
2022/05/01 06:20:59;;;;;;;7.30;6.70;;;;;;;;;;5007868;28;20562;-53
2022/05/01 06:23:25;;;;;;;7.80;7.10;;;;;;;;;;5003710;28;20191;-53
2022/05/01 06:25:51;;;;;;;7.67;6.97;;;;;;;;;;5006778;28;20230;-53
2022/05/01 06:28:17;;;;;;;8.30;7.50;;;;;;;;;;5001612;28;20198;-53
2022/05/01 06:30:48;;;;;;;7.20;6.50;;;;;;;;;;5001907;28;20191;-53
2022/05/01 06:33:15;;;;;;;7.20;6.47;;;;;;;;;;4995786;28;20567;-53
2022/05/01 06:35:42;;;;;;;7.50;6.80;;;;;;;;;;5003360;28;20669;-54
2022/05/01 06:38:08;;;;;;;7.40;6.80;;;;;;;;;;5001845;28;20194;-54
2022/05/01 06:40:37;;;;;;;7.47;6.87;;;;;;;;;;5003961;28;20650;-53
2022/05/01 06:43:03;;;;;;;7.23;6.60;;;;;;;;;;5005595;28;20208;-52
2022/05/01 06:45:29;;;;;;;7.93;7.20;;;;;;;;;;5005871;28;20246;-53
2022/05/01 06:47:55;;;;;;;7.17;6.47;;;;;;;;;;5003981;28;20181;-53
2022/05/01 06:50:21;;;;;;;7.83;7.13;;;;;;;;;;5007348;28;20182;-53
2022/05/01 06:52:47;;;;;;;7.73;7.10;;;;;;;;;;5001441;28;20221;-53
2022/05/01 06:55:16;;;;;;;6.70;6.17;;;;;;;;;;5002686;28;20197;-52
2022/05/01 06:57:42;;;;;;;7.30;6.70;;;;;;;;;;5004061;28;20190;-52
2022/05/01 07:00:08;;;;;;;7.43;5.70;;;;;;;;;;5006991;28;20174;-52
2022/05/01 07:02:34;;;;;;;7.50;6.70;;;;;;;;;;5004584;28;20280;-53
2022/05/01 07:05:00;;;;;;;6.53;5.93;;;;;;;;;;5010714;28;20264;-53
2022/05/01 07:07:26;;;;;;;6.53;6.03;;;;;;;;;;5006168;28;20187;-53
2022/05/01 07:09:52;;;;;;;6.93;6.30;;;;;;;;;;5006081;28;20236;-53
2022/05/01 07:12:18;;;;;;;6.93;6.23;;;;;;;;;;5010176;28;20183;-53
2022/05/01 07:14:45;;;;;;;7.33;6.63;;;;;;;;;;5008723;28;20189;-53
2022/05/01 07:17:12;;;;;;;7.03;6.33;;;;;;;;;;5008376;28;20193;-53
2022/05/01 07:19:38;;;;;;;6.97;6.27;;;;;;;;;;5008189;28;20221;-53
2022/05/01 07:22:04;;;;;;;6.20;5.70;;;;;;;;;;5008563;28;20708;-53
2022/05/01 07:24:30;;;;;;;7.40;6.20;;;;;;;;;;5008104;28;20182;-53
2022/05/01 07:26:56;;;;;;;6.90;6.30;;;;;;;;;;5006996;28;20206;-53
2022/05/01 07:29:26;;;;;;;7.53;5.83;;;;;;;;;;4999972;28;20175;-53
2022/05/01 07:31:52;;;;;;;7.13;6.43;;;;;;;;;;5005346;28;20317;-54
2022/05/01 07:34:19;;;;;;;7.30;6.60;;;;;;;;;;5005205;28;20218;-54
2022/05/01 07:36:45;;;;;;;8.13;7.30;;;;;;;;;;4999231;28;20191;-53
2022/05/01 07:39:12;;;;;;;9.00;7.33;;;;;;;;;;5005528;28;20253;-53
2022/05/01 07:41:38;;;;;;;8.43;7.43;;;;;;;;;;5012118;28;20167;-53
2022/05/01 07:44:04;;;;;;;7.53;6.87;;;;;;;;;;5009612;28;20222;-53
2022/05/01 07:46:31;;;;;;;7.27;6.57;;;;;;;;;;5011457;28;20229;-53
2022/05/01 07:48:57;;;;;;;8.23;6.63;;;;;;;;;;5006132;28;20182;-53
2022/05/01 07:51:23;;;;;;;7.80;7.03;;;;;;;;;;5009937;28;20237;-53
2022/05/01 07:53:49;;;;;;;8.37;7.40;;;;;;;;;;5007584;28;20529;-53
2022/05/01 07:56:15;;;;;;;6.73;6.03;;;;;;;;;;5009940;28;20182;-54
2022/05/01 07:58:41;;;;;;;7.77;7.00;;;;;;;;;;4996523;28;20183;-54
2022/05/01 08:01:08;;;;;;;8.37;6.87;;;;;;;;;;4993987;28;20237;-53
2022/05/01 08:06:19;;;;;;;7.23;6.53;;;;;;;;;;4991226;28;20204;-54
2022/05/01 08:08:49;;;;;;;7.97;7.27;;;;;;;;;;4993520;28;20515;-53
2022/05/01 08:11:15;;;;;;;7.23;6.53;;;;;;;;;;5005884;28;20586;-54
2022/05/01 08:13:41;;;;;;;7.50;6.80;;;;;;;;;;5002096;28;20245;-54
2022/05/01 08:16:08;;;;;;;9.27;6.90;;;;;;;;;;4991588;28;20642;-54
2022/05/01 08:21:21;;;;;;;6.77;6.07;;;;;;;;;;4990954;28;20252;-54
2022/05/01 08:23:47;;;;;;;6.70;6.10;;;;;;;;;;5001089;28;20793;-54
2022/05/01 08:26:13;;;;;;;7.03;6.43;;;;;;;;;;4997175;28;20230;-54
2022/05/01 08:28:41;;;;;;;7.27;6.63;;;;;;;;;;4996600;28;20189;-54
2022/05/01 08:31:07;;;;;;;7.27;6.60;;;;;;;;;;5000707;28;20175;-54
2022/05/01 08:33:34;;;;;;;7.27;6.53;;;;;;;;;;4994076;28;20273;-53
2022/05/01 08:36:02;;;;;;;7.57;6.87;;;;;;;;;;4994114;28;21042;-54
2022/05/01 08:38:29;;;;;;;7.00;6.40;;;;;;;;;;4988016;28;20187;-54
2022/05/01 08:40:58;;;;;;;7.50;6.83;;;;;;;;;;4988703;28;20186;-54
2022/05/01 08:43:28;;;;;;;6.63;6.03;;;;;;;;;;4988343;28;20596;-53
2022/05/01 08:45:54;;;;;;;7.37;6.30;;;;;;;;;;4991757;28;20210;-54
2022/05/01 08:48:56;;;;;;;7.77;6.23;;;;;;;;;;5001925;28;20819;-54
2022/05/01 08:51:22;;;;;;;7.67;6.50;;;;;;;;;;5009961;28;20253;-54
2022/05/01 08:53:49;;;;;;;6.60;6.00;;;;;;;;;;5006431;28;20708;-53
2022/05/01 08:56:18;;;;;;;6.20;5.63;;;;;;;;;;5010212;28;20179;-53
2022/05/01 08:58:44;;;;;;;6.60;6.00;;;;;;;;;;4997424;28;20277;-54
2022/05/01 09:01:14;;;;;;;6.57;5.90;;;;;;;;;;5010380;28;20570;-54
2022/05/01 09:03:46;;;;;;;6.67;6.07;;;;;;;;;;5003004;28;20729;-54
2022/05/01 09:06:18;;;;;;;6.27;5.67;;;;;;;;;;5003570;28;20692;-54
2022/05/01 09:08:44;;;;;;;6.50;5.30;;;;;;;;;;4993760;28;20586;-53
2022/05/01 09:13:56;;;;;;;6.30;5.80;;;;;;;;;;5006128;28;20189;-53
2022/05/01 09:16:22;;;;;;;6.17;5.63;;;;;;;;;;5009079;28;20224;-54
2022/05/01 09:18:49;;;;;;;6.90;6.20;;;;;;;;;;5008067;28;20637;-54
2022/05/01 09:21:15;;;;;;;7.23;6.33;;;;;;;;;;5009851;28;20753;-54
2022/05/01 09:23:43;;;;;;;7.40;6.40;;;;;;;;;;4992800;28;20278;-53
2022/05/01 09:26:10;;;;;;;6.67;6.03;;;;;;;;;;4988490;28;20203;-54
2022/05/01 09:28:53;;;;;;;6.30;5.57;;;;;;;;;;5000290;28;20221;-54
2022/05/01 09:31:39;;;;;;;6.93;6.23;;;;;;;;;;5004767;28;20186;-54
2022/05/01 09:34:25;;;;;;;6.60;6.00;;;;;;;;;;5000733;28;20240;-53
2022/05/01 09:36:51;;;;;;;6.73;6.00;;;;;;;;;;5001471;28;20270;-54
2022/05/01 09:39:18;;;;;;;6.67;5.87;;;;;;;;;;4997864;28;20198;-54
2022/05/01 09:41:44;;;;;;;6.67;6.07;;;;;;;;;;5007193;28;20175;-54
2022/05/01 09:44:14;;;;;;;6.60;6.03;;;;;;;;;;5007460;28;20198;-54
2022/05/01 09:46:47;;;;;;;6.50;5.77;;;;;;;;;;4988814;28;20203;-54
2022/05/01 09:49:14;;;;;;;7.20;6.50;;;;;;;;;;4999540;28;20186;-54
2022/05/01 09:51:48;;;;;;;6.37;5.77;;;;;;;;;;4988781;28;20224;-54
2022/05/01 09:54:18;;;;;;;6.43;5.80;;;;;;;;;;4989694;28;20278;-53
2022/05/01 09:57:05;;;;;;;6.40;5.73;;;;;;;;;;5008406;28;20233;-54
2022/05/01 09:59:46;;;;;;;5.87;5.37;;;;;;;;;;5003625;28;20935;-54
2022/05/01 10:02:12;;;;;;;6.93;6.23;;;;;;;;;;4987483;28;20179;-54
2022/05/01 10:04:39;;;;;;;6.87;6.17;;;;;;;;;;4986370;28;20195;-54
2022/05/01 10:07:08;;;;;;;7.23;6.53;;;;;;;;;;4994970;28;20195;-53
2022/05/01 10:09:34;;;;;;;7.13;6.53;;;;;;;;;;4988679;28;20190;-53
2022/05/01 10:12:04;;;;;;;6.90;6.20;;;;;;;;;;4991598;28;20922;-54
2022/05/01 10:14:30;;;;;;;7.00;6.30;;;;;;;;;;4988331;28;20626;-53
2022/05/01 10:17:00;;;;;;;6.97;6.27;;;;;;;;;;4988742;28;20199;-53
2022/05/01 10:19:26;;;;;;;6.50;5.90;;;;;;;;;;5005842;28;20646;-54
2022/05/01 10:22:01;;;;;;;8.53;6.70;;;;;;;;;;5001080;28;20360;-53
2022/05/01 10:24:30;;;;;;;6.57;5.87;;;;;;;;;;4996641;28;20185;-53
2022/05/01 10:27:00;;;;;;;7.23;6.53;;;;;;;;;;4990639;28;20263;-53
2022/05/01 10:29:31;;;;;;;6.03;5.53;;;;;;;;;;5001517;28;20191;-53
2022/05/01 10:32:22;;;;;;;6.30;5.70;;;;;;;;;;5005167;28;20217;-54
2022/05/01 10:35:07;;;;;;;6.77;6.07;;;;;;;;;;5006024;28;20252;-54
2022/05/01 10:37:36;;;;;;;6.50;5.90;;;;;;;;;;5007077;28;20222;-54
2022/05/01 10:40:03;;;;;;;7.43;6.53;;;;;;;;;;5001701;28;20186;-54
2022/05/01 10:42:38;;;;;;;7.00;6.37;;;;;;;;;;5002541;28;20277;-54
2022/05/01 10:45:26;;;;;;;7.17;6.47;;;;;;;;;;5000858;28;20223;-54
2022/05/01 10:47:53;;;;;;;6.60;6.00;;;;;;;;;;4998760;28;20198;-54
2022/05/01 10:50:24;;;;;;;7.23;6.53;;;;;;;;;;4985214;28;20233;-54
2022/05/01 10:53:09;;;;;;;7.10;5.83;;;;;;;;;;5021238;28;20205;-54
2022/05/01 10:55:51;;;;;;;7.80;7.10;;;;;;;;;;5001036;28;20265;-54
2022/05/01 10:58:27;;;;;;;5.73;5.23;;;;;;;;;;5006510;28;20513;-53
2022/05/01 11:01:00;;;;;;;6.53;6.00;;;;;;;;;;4988773;28;20873;-54
2022/05/01 11:03:35;;;;;;;6.53;5.93;;;;;;;;;;5001346;28;20175;-54
2022/05/01 11:06:05;;;;;;;6.60;6.00;;;;;;;;;;5005444;28;20293;-54
2022/05/01 11:08:31;;;;;;;6.60;6.03;;;;;;;;;;4998183;28;20220;-54
2022/05/01 11:10:59;;;;;;;6.67;6.07;;;;;;;;;;5007401;28;20627;-53
2022/05/01 11:13:32;;;;;;;6.43;5.83;;;;;;;;;;5005659;28;20641;-54
2022/05/01 11:15:59;;;;;;;7.40;6.70;;;;;;;;;;5007139;28;20191;-54
2022/05/01 11:18:48;;;;;;;6.37;5.83;;;;;;;;;;5004524;28;20214;-54
2022/05/01 11:21:20;;;;;;;6.83;6.17;;;;;;;;;;5005084;28;20206;-53
2022/05/01 11:23:47;;;;;;;7.00;6.27;;;;;;;;;;5000591;28;20187;-54
2022/05/01 11:26:32;;;;;;;6.97;6.27;;;;;;;;;;5002412;28;20248;-54
2022/05/01 11:29:04;;;;;;;6.53;5.93;;;;;;;;;;5005022;28;20174;-54
2022/05/01 11:31:39;;;;;;;6.63;6.03;;;;;;;;;;5003549;28;20193;-54
2022/05/01 11:34:22;;;;;;;7.90;6.87;;;;;;;;;;5020596;28;20668;-54
2022/05/01 11:36:54;;;;;;;7.10;6.50;;;;;;;;;;5006074;28;20863;-53
2022/05/01 11:39:21;;;;;;;7.67;7.00;;;;;;;;;;5012766;28;20237;-54
2022/05/01 11:42:00;;;;;;;7.97;7.13;;;;;;;;;;5029992;28;20300;-53
2022/05/01 11:44:27;;;;;;;7.83;7.13;;;;;;;;;;5037484;28;20600;-53
2022/05/01 11:46:56;;;;;;;7.33;6.73;;;;;;;;;;5009546;28;20194;-54
2022/05/01 11:49:22;;;;;;;6.77;6.27;;;;;;;;;;5006365;28;20174;-53
2022/05/01 11:51:49;;;;;;;8.77;7.13;;;;;;;;;;5016881;28;20921;-54
2022/05/01 11:54:15;;;;;;;8.00;7.20;;;;;;;;;;5011994;28;20189;-54
2022/05/01 12:02:25;;;;;;;10.73;9.93;;;;;;;;;;5037879;28;20236;-54
2022/05/01 12:04:51;;;;;;;7.37;6.63;;;;;;;;;;5036449;28;20250;-53
2022/05/01 12:07:18;;;;;;;8.43;6.73;;;;;;;;;;5019300;28;20174;-54
2022/05/01 12:09:46;;;;;;;7.97;7.37;;;;;;;;;;5024987;28;20209;-54
2022/05/01 12:12:13;;;;;;;7.33;6.70;;;;;;;;;;5038513;28;20260;-54
2022/05/01 12:14:40;;;;;;;9.57;7.27;;;;;;;;;;5033776;28;20793;-54
2022/05/01 12:17:36;;;;;;;10.03;6.97;;;;;;;;;;5033506;28;20187;-54
2022/05/01 12:20:02;;;;;;;7.50;6.83;;;;;;;;;;5001581;28;20190;-54
2022/05/01 12:22:37;;;;;;;7.03;6.43;;;;;;;;;;5016677;28;20190;-53
2022/05/01 12:25:04;;;;;;;8.60;7.37;;;;;;;;;;5019781;28;20197;-54
2022/05/01 12:27:33;;;;;;;7.13;6.53;;;;;;;;;;5028645;28;20205;-54
2022/05/01 12:30:00;;;;;;;7.87;7.03;;;;;;;;;;5028763;28;20186;-54
2022/05/01 12:32:27;;;;;;;7.50;6.90;;;;;;;;;;5034346;28;20194;-53
2022/05/01 12:34:55;;;;;;;7.63;6.93;;;;;;;;;;5031022;28;20185;-54
2022/05/01 12:37:43;;;;;;;8.07;7.23;;;;;;;;;;5028703;28;20247;-52
2022/05/01 12:43:50;;;;;;;7.90;7.17;;;;;;;;;;5016182;28;20184;-54
2022/05/01 12:45:53;;;;;;;8.23;7.43;;;;;;;;;;5027315;28;20269;-54
2022/05/01 12:48:25;;;;;;;8.80;8.03;;;;;;;;;;5008132;28;20178;-53
2022/05/01 12:50:57;;;;;;;8.27;7.43;;;;;;;;;;5025305;28;20572;-54
2022/05/01 12:53:27;;;;;;;7.80;7.07;;;;;;;;;;5004284;28;20208;-54
2022/05/01 12:55:54;;;;;;;8.37;7.50;;;;;;;;;;5001833;28;20186;-54
2022/05/01 12:58:33;;;;;;;7.60;6.90;;;;;;;;;;5022961;28;20186;-54
2022/05/01 13:01:02;;;;;;;7.40;6.70;;;;;;;;;;5006914;28;20185;-54
2022/05/01 13:03:31;;;;;;;7.67;6.90;;;;;;;;;;5025324;28;20273;-55
2022/05/01 13:06:13;;;;;;;16.97;11.03;;;;;;;;;;5022759;28;20568;-54
2022/05/01 13:08:49;;;;;;;28.27;11.87;;;;;;;;;;5007017;28;20674;-52
2022/05/01 13:11:33;;;;;;;10.63;9.60;;;;;;;;;;5007585;28;20181;-53
2022/05/01 13:14:04;;;;;;;11.70;10.53;;;;;;;;;;5017227;28;20647;-53
2022/05/01 13:16:36;;;;;;;16.10;11.37;;;;;;;;;;5043176;28;20192;-53
2022/05/01 13:19:10;;;;;;;15.50;10.37;;;;;;;;;;5009710;28;20541;-53
2022/05/01 13:21:44;;;;;;;11.20;10.03;;;;;;;;;;5024448;28;20181;-53
2022/05/01 13:24:19;;;;;;;10.23;9.23;;;;;;;;;;5028472;28;20190;-53
2022/05/01 13:26:45;;;;;;;11.67;10.13;;;;;;;;;;5011509;28;20421;-54
2022/05/01 13:32:00;;;;;;;17.30;9.67;;;;;;;;;;5023407;28;20363;-53
2022/05/01 13:34:27;;;;;;;9.43;8.53;;;;;;;;;;5028617;28;20226;-53
2022/05/01 13:36:55;;;;;;;10.63;9.73;;;;;;;;;;5013742;28;20244;-53
2022/05/01 13:39:21;;;;;;;16.57;11.63;;;;;;;;;;5042918;28;20186;-53
2022/05/01 13:44:44;;;;;;;11.40;10.37;;;;;;;;;;5030563;28;20546;-54
2022/05/01 13:47:12;;;;;;;15.53;11.80;;;;;;;;;;5009415;28;20190;-53
2022/05/01 13:49:40;;;;;;;14.07;12.73;;;;;;;;;;5025278;28;20291;-53
2022/05/01 13:52:06;;;;;;;13.60;12.07;;;;;;;;;;5025553;28;20178;-53
2022/05/01 13:54:33;;;;;;;16.83;11.97;;;;;;;;;;5007876;28;20209;-53
2022/05/01 13:56:59;;;;;;;13.00;11.67;;;;;;;;;;5025143;28;20181;-53
2022/05/01 13:59:27;;;;;;;13.73;12.43;;;;;;;;;;4991149;28;20595;-53
2022/05/01 14:01:56;;;;;;;10.87;9.77;;;;;;;;;;4994015;28;20186;-53
2022/05/01 14:04:23;;;;;;;14.60;13.30;;;;;;;;;;5014555;28;20233;-53
2022/05/01 14:06:50;;;;;;;14.67;13.20;;;;;;;;;;5009698;28;20217;-52
2022/05/01 14:09:19;;;;;;;13.73;12.43;;;;;;;;;;5025552;28;20200;-52
2022/05/01 14:11:49;;;;;;;13.27;12.07;;;;;;;;;;5025496;28;20190;-52
2022/05/01 14:14:16;;;;;;;15.20;12.03;;;;;;;;;;5028072;28;20178;-51
2022/05/01 14:16:46;;;;;;;13.10;11.67;;;;;;;;;;5010205;28;20233;-51
2022/05/01 14:19:15;;;;;;;14.00;12.67;;;;;;;;;;5008990;28;20194;-52
2022/05/01 14:21:42;;;;;;;15.80;14.30;;;;;;;;;;5018482;28;20551;-52
2022/05/01 14:24:09;;;;;;;13.10;11.90;;;;;;;;;;5026399;28;20187;-52
2022/05/01 14:26:35;;;;;;;13.30;12.10;;;;;;;;;;5023954;28;20286;-52
2022/05/01 14:29:02;;;;;;;12.20;11.17;;;;;;;;;;5026943;28;20270;-52
2022/05/01 14:31:35;;;;;;;12.47;11.13;;;;;;;;;;5008079;28;20588;-52
2022/05/01 14:34:15;;;;;;;13.53;12.23;;;;;;;;;;5007581;28;20222;-53
2022/05/01 14:36:43;;;;;;;13.80;12.40;;;;;;;;;;5028858;28;20195;-52
2022/05/01 14:39:11;;;;;;;13.83;12.30;;;;;;;;;;5024628;28;20297;-52
2022/05/01 14:41:44;;;;;;;12.53;11.43;;;;;;;;;;5009709;28;20732;-53
2022/05/01 14:44:11;;;;;;;12.83;11.60;;;;;;;;;;5025263;28;20239;-53
2022/05/01 14:46:47;;;;;;;13.80;12.50;;;;;;;;;;5038079;28;20218;-53
2022/05/01 14:49:23;;;;;;;13.33;11.93;;;;;;;;;;5024774;28;20174;-51
2022/05/01 14:51:59;;;;;;;13.63;12.30;;;;;;;;;;5008656;28;20186;-51
2022/05/01 14:54:27;;;;;;;13.10;11.93;;;;;;;;;;5027536;28;20519;-53
2022/05/01 14:56:56;;;;;;;12.50;11.30;;;;;;;;;;5009188;28;20187;-53
2022/05/01 15:07:59;;;;;;;15.00;13.43;;;;;;;;;;4999281;28;20724;-52
2022/05/01 15:10:25;;;;;;;13.67;12.30;;;;;;;;;;5018890;28;20190;-52
2022/05/01 15:12:52;;;;;;;14.10;12.80;;;;;;;;;;5004184;28;20644;-52
2022/05/01 15:15:19;;;;;;;13.00;11.83;;;;;;;;;;5025427;28;20587;-52
2022/05/01 15:17:49;;;;;;;14.27;12.83;;;;;;;;;;5026193;28;20191;-52
2022/05/01 15:20:20;;;;;;;11.83;10.73;;;;;;;;;;5006667;28;20184;-52
2022/05/01 15:22:58;;;;;;;13.17;12.07;;;;;;;;;;5034046;28;20186;-52
2022/05/01 15:25:29;;;;;;;13.00;11.83;;;;;;;;;;5032186;28;20686;-53
2022/05/01 15:28:12;;;;;;;12.67;10.33;;;;;;;;;;5028598;28;20186;-52
2022/05/01 15:30:47;;;;;;;12.07;10.97;;;;;;;;;;5013523;28;20281;-52